Time;durP1;ratioP1;P1;durP2;ratioP2;P2;SDS_P1;SDS_P2;PMS_P1;PMS_P2;Temp;Humidity;BMP_temperature;BMP_pressure;BME280_temperature;BME280_humidity;BME280_pressure;Samples;Min_cycle;Max_cycle;Signal;HPM_P1;HPM_P2
2022/05/16 00:01:38;;;;;;;4.65;2.50;;;;;;;9.86;60.95;98742.78;4791815;29;20166;-82
2022/05/16 00:04:06;;;;;;;4.65;2.20;;;;;;;9.68;61.15;98712.84;4799904;29;20486;-82
2022/05/16 00:06:31;;;;;;;3.70;1.95;;;;;;;10.02;60.76;98758.88;4795473;29;20046;-80
2022/05/16 00:08:58;;;;;;;2.25;1.58;;;;;;;10.04;60.82;98741.50;4818213;29;21023;-79
2022/05/16 00:11:24;;;;;;;1.77;1.45;;;;;;;10.16;60.37;98742.91;4812031;29;20035;-79
2022/05/16 00:13:50;;;;;;;2.75;1.65;;;;;;;10.17;60.26;98742.91;4803209;29;20393;-80
2022/05/16 00:16:17;;;;;;;2.83;1.50;;;;;;;10.20;59.82;98728.97;4797806;29;20086;-80
2022/05/16 00:18:42;;;;;;;2.08;1.65;;;;;;;10.38;59.91;98749.34;4788485;29;20058;-82
2022/05/16 00:21:08;;;;;;;2.35;1.30;;;;;;;10.36;59.55;98743.31;4786878;29;20043;-82
2022/05/16 00:23:34;;;;;;;3.05;1.60;;;;;;;10.43;59.10;98754.44;4798681;29;20055;-81
2022/05/16 00:26:00;;;;;;;1.38;1.25;;;;;;;10.55;59.19;98758.50;4798925;29;20039;-82
2022/05/16 00:28:26;;;;;;;2.85;1.30;;;;;;;10.44;58.96;98743.16;4799311;29;20134;-80
2022/05/16 00:30:52;;;;;;;1.92;1.25;;;;;;;10.54;58.26;98755.00;4769804;29;20050;-81
2022/05/16 00:33:18;;;;;;;2.00;1.23;;;;;;;10.36;58.16;98726.84;4803408;29;20073;-81
2022/05/16 00:35:44;;;;;;;3.55;1.10;;;;;;;10.62;57.77;98759.19;4807308;29;20071;-80
2022/05/16 00:38:10;;;;;;;0.93;0.82;;;;;;;10.59;57.40;98748.84;4803687;29;20046;-82
2022/05/16 00:40:36;;;;;;;1.85;0.90;;;;;;;10.47;57.09;98726.59;4804044;29;20073;-81
2022/05/16 00:43:05;;;;;;;2.45;1.10;;;;;;;10.63;56.86;98747.88;4804715;29;20047;-80
2022/05/16 00:45:32;;;;;;;1.88;1.17;;;;;;;10.77;56.56;98768.34;4803454;29;20118;-81
2022/05/16 00:47:58;;;;;;;3.30;1.52;;;;;;;10.72;56.09;98755.44;4801935;29;20113;-81
2022/05/16 00:50:27;;;;;;;1.95;1.00;;;;;;;10.63;56.59;98750.47;4802670;29;20042;-82
2022/05/16 00:52:54;;;;;;;1.20;1.10;;;;;;;10.53;56.49;98735.09;4802042;29;20046;-79
2022/05/16 00:55:31;;;;;;;1.67;1.30;;;;;;;10.48;56.38;98731.75;4791868;29;20035;-81
2022/05/16 00:58:01;;;;;;;1.70;1.00;;;;;;;10.62;55.84;98762.63;4799573;29;20185;-80
2022/05/16 01:00:31;;;;;;;1.17;1.08;;;;;;;10.53;55.92;98742.91;4816291;29;20402;-79
2022/05/16 01:05:45;;;;;;;2.22;1.25;;;;;;;10.74;55.57;98776.22;4804514;29;20050;-82
2022/05/16 01:08:18;;;;;;;3.15;1.30;;;;;;;10.73;55.70;98777.94;4803641;29;20050;-79
2022/05/16 01:10:44;;;;;;;2.78;0.90;;;;;;;10.75;55.55;98780.53;4801780;29;20628;-80
2022/05/16 01:13:12;;;;;;;1.88;0.98;;;;;;;10.64;55.68;98757.41;4805848;29;20058;-80
2022/05/16 01:15:47;;;;;;;2.33;1.08;;;;;;;10.74;55.29;98779.66;4799483;29;20039;-79
2022/05/16 01:18:16;;;;;;;1.23;1.00;;;;;;;10.69;55.47;98774.59;4807888;29;20366;-79
2022/05/16 01:21:16;;;;;;;0.80;0.80;;;;;;;10.79;55.13;98783.00;4801434;29;20043;-81
2022/05/16 01:24:10;;;;;;;1.70;1.15;;;;;;;10.60;55.57;98759.19;4801506;29;20055;-78
2022/05/16 01:26:37;;;;;;;2.10;1.25;;;;;;;10.81;55.22;98786.44;4804885;29;20050;-80
2022/05/16 01:29:05;;;;;;;2.85;1.20;;;;;;;10.79;55.27;98787.38;4800789;29;20050;-80
2022/05/16 01:31:31;;;;;;;2.20;1.10;;;;;;;10.63;55.27;98761.72;4805900;29;20052;-80
2022/05/16 01:33:58;;;;;;;2.25;1.17;;;;;;;10.62;55.46;98752.22;4809551;29;20150;-81
2022/05/16 01:36:25;;;;;;;8.23;1.40;;;;;;;10.80;55.45;98786.47;4805402;29;20058;-81
2022/05/16 01:38:51;;;;;;;2.45;1.38;;;;;;;10.82;55.49;98779.47;4805636;29;20062;-79
2022/05/16 01:41:21;;;;;;;2.33;1.20;;;;;;;10.59;55.15;98747.13;4814949;29;20276;-80
2022/05/16 01:43:51;;;;;;;1.30;0.90;;;;;;;10.70;55.21;98778.91;4824309;29;20062;-81
2022/05/16 01:46:25;;;;;;;1.65;1.20;;;;;;;10.78;55.29;98790.88;4825429;29;20142;-81
2022/05/16 01:48:52;;;;;;;1.73;1.13;;;;;;;10.80;55.20;98797.72;4839817;29;20070;-80
2022/05/16 01:51:19;;;;;;;1.08;0.90;;;;;;;10.79;55.17;98798.63;4797337;29;20058;-81
2022/05/16 01:53:45;;;;;;;1.70;1.30;;;;;;;10.69;54.94;98784.16;4795108;29;20060;-81
2022/05/16 01:56:11;;;;;;;3.55;1.20;;;;;;;10.36;55.09;98734.66;4785030;29;20506;-80
2022/05/16 01:58:38;;;;;;;1.50;1.13;;;;;;;10.71;54.74;98787.53;4800294;29;20093;-81
2022/05/16 02:01:04;;;;;;;1.10;1.00;;;;;;;10.75;54.83;98796.97;4803501;29;20108;-82
2022/05/16 02:03:31;;;;;;;1.88;1.25;;;;;;;10.73;55.03;98793.56;4774678;29;20142;-79
2022/05/16 02:05:57;;;;;;;4.80;1.10;;;;;;;10.63;54.75;98773.91;4792521;29;20122;-79
2022/05/16 02:08:23;;;;;;;1.60;1.20;;;;;;;10.75;54.53;98786.56;4789615;29;20058;-82
2022/05/16 02:10:49;;;;;;;3.13;1.23;;;;;;;10.89;54.52;98801.00;4804410;29;20045;-81
2022/05/16 02:13:16;;;;;;;1.50;1.23;;;;;;;10.74;54.39;98758.00;4809036;29;20047;-81
2022/05/16 02:15:44;;;;;;;3.10;1.20;;;;;;;10.98;54.51;98796.41;4801376;29;20110;-81
2022/05/16 02:18:10;;;;;;;4.05;1.23;;;;;;;10.85;54.14;98784.59;4806456;29;20051;-82
2022/05/16 02:20:40;;;;;;;1.65;1.30;;;;;;;10.95;54.29;98799.09;4801685;29;20051;-80
2022/05/16 02:25:53;;;;;;;2.63;1.00;;;;;;;10.86;54.26;98775.88;4801771;29;20050;-81
2022/05/16 02:28:21;;;;;;;2.95;1.10;;;;;;;10.97;53.92;98799.03;4783680;29;20107;-79
2022/05/16 02:30:55;;;;;;;1.60;1.20;;;;;;;11.00;53.82;98793.75;4804060;29;20104;-80
2022/05/16 02:33:22;;;;;;;1.38;0.90;;;;;;;10.96;53.35;98787.78;4806469;29;20058;-80
2022/05/16 02:35:49;;;;;;;1.52;1.00;;;;;;;10.99;53.77;98802.44;4805813;29;20046;-81
2022/05/16 02:38:19;;;;;;;2.67;1.20;;;;;;;10.97;53.57;98806.84;4807082;29;20092;-78
2022/05/16 02:40:45;;;;;;;1.27;1.02;;;;;;;10.82;53.61;98782.06;4818039;29;20050;-81
2022/05/16 02:43:11;;;;;;;1.77;1.00;;;;;;;10.73;53.01;98793.56;4808681;29;20046;-80
2022/05/16 02:45:38;;;;;;;3.05;1.60;;;;;;;10.58;53.66;98778.34;4804568;29;20071;-82
2022/05/16 02:48:06;;;;;;;1.55;1.08;;;;;;;10.74;54.08;98812.66;4807971;29;20050;-80
2022/05/16 02:50:32;;;;;;;1.58;0.95;;;;;;;10.56;53.66;98794.00;4801364;29;20061;-80
2022/05/16 02:52:58;;;;;;;2.55;1.38;;;;;;;10.64;53.74;98817.22;4821251;29;20083;-79
2022/05/16 02:55:24;;;;;;;1.23;0.90;;;;;;;10.56;54.37;98799.22;4792197;29;20042;-82
2022/05/16 02:57:50;;;;;;;1.83;1.10;;;;;;;10.57;54.25;98793.13;4816736;29;20424;-79
2022/05/16 03:00:18;;;;;;;6.88;1.25;;;;;;;10.74;54.23;98816.09;4817953;29;20206;-79
2022/05/16 03:02:50;;;;;;;0.93;0.80;;;;;;;10.78;54.37;98806.47;4818332;29;20066;-80
2022/05/16 03:05:16;;;;;;;3.17;1.13;;;;;;;10.87;54.08;98808.00;4815392;29;20106;-81
2022/05/16 03:07:43;;;;;;;4.22;1.33;;;;;;;10.52;54.08;98746.41;4790487;29;20050;-79
2022/05/16 03:10:11;;;;;;;2.28;1.23;;;;;;;11.11;53.43;98825.56;4793265;29;20069;-81
2022/05/16 03:12:37;;;;;;;1.77;1.10;;;;;;;11.19;53.87;98808.88;4801156;29;20046;-78
2022/05/16 03:15:04;;;;;;;2.15;1.23;;;;;;;11.43;53.18;98829.03;4818040;29;20053;-81
2022/05/16 03:17:30;;;;;;;1.27;0.95;;;;;;;11.57;52.91;98825.19;4817812;29;20122;-80
2022/05/16 03:19:56;;;;;;;1.92;1.10;;;;;;;11.60;52.79;98809.44;4828626;29;20031;-80
2022/05/16 03:22:22;;;;;;;1.88;1.10;;;;;;;11.73;52.30;98815.16;4821480;29;20110;-80
2022/05/16 03:24:48;;;;;;;1.58;0.80;;;;;;;11.74;52.13;98819.47;4802488;29;20073;-80
2022/05/16 03:27:17;;;;;;;2.35;1.00;;;;;;;11.40;52.20;98752.72;4794211;29;20039;-79
2022/05/16 03:29:52;;;;;;;1.15;0.90;;;;;;;11.56;51.40;98781.81;4821232;29;20105;-79
2022/05/16 03:32:18;;;;;;;3.40;0.85;;;;;;;11.29;51.70;98732.22;4819170;29;20079;-82
2022/05/16 03:34:44;;;;;;;1.45;1.00;;;;;;;10.95;51.43;98681.94;4805679;29;20099;-80
2022/05/16 03:37:11;;;;;;;1.55;0.90;;;;;;;11.58;51.10;98770.44;4789739;29;20092;-78
2022/05/16 03:42:21;;;;;;;1.05;0.80;;;;;;;11.96;51.01;98832.75;4817100;29;20085;-78
2022/05/16 03:44:47;;;;;;;2.45;0.90;;;;;;;11.38;50.81;98770.16;4799802;29;20158;-79
2022/05/16 03:47:14;;;;;;;1.30;0.90;;;;;;;11.67;50.75;98818.81;4790359;29;20071;-83
2022/05/16 03:49:41;;;;;;;3.88;1.20;;;;;;;11.98;51.04;98857.03;4805722;29;20050;-80
2022/05/16 03:52:07;;;;;;;0.73;0.73;;;;;;;11.63;50.82;98769.44;4815030;29;20418;-83
2022/05/16 03:54:33;;;;;;;1.75;0.90;;;;;;;12.21;50.30;98829.44;4818241;29;20052;-79
2022/05/16 03:56:59;;;;;;;1.83;0.90;;;;;;;12.04;49.99;98773.41;4783513;29;20408;-81
2022/05/16 03:59:25;;;;;;;2.17;1.45;;;;;;;12.68;49.94;98841.84;4776026;29;20049;-80
2022/05/16 04:01:52;;;;;;;4.32;0.90;;;;;;;12.82;49.56;98836.16;4790477;29;20555;-84
2022/05/16 04:04:18;;;;;;;2.75;0.90;;;;;;;12.50;49.25;98755.44;4799435;29;20045;-79
2022/05/16 04:06:45;;;;;;;1.42;0.93;;;;;;;13.08;48.60;98848.34;4795550;29;20043;-80
2022/05/16 04:09:11;;;;;;;1.95;0.80;;;;;;;12.99;48.26;98819.94;4800750;29;20050;-81
2022/05/16 04:11:36;;;;;;;2.63;1.23;;;;;;;13.33;48.48;98841.41;4812490;29;20102;-78
2022/05/16 04:14:03;;;;;;;4.88;1.00;;;;;;;13.40;47.77;98843.78;4804542;29;20042;-78
2022/05/16 04:16:28;;;;;;;0.90;0.82;;;;;;;13.49;47.81;98847.81;4796755;29;20203;-81
2022/05/16 04:18:55;;;;;;;2.00;1.00;;;;;;;13.50;47.52;98820.78;4797060;29;20580;-79
2022/05/16 04:21:21;;;;;;;1.10;0.90;;;;;;;13.65;47.12;98815.91;4822400;29;20057;-82
2022/05/16 04:23:47;;;;;;;2.00;0.90;;;;;;;13.58;46.78;98789.13;4799650;29;20045;-81
2022/05/16 04:26:13;;;;;;;1.60;0.80;;;;;;;13.93;46.40;98833.16;4827461;29;20046;-82
2022/05/16 04:28:39;;;;;;;1.60;0.90;;;;;;;13.82;46.16;98815.28;4814384;29;20042;-81
2022/05/16 04:31:05;;;;;;;2.00;0.88;;;;;;;14.00;46.09;98814.56;4803252;29;20403;-82
2022/05/16 04:33:35;;;;;;;1.25;0.82;;;;;;;13.85;45.84;98800.31;4792655;29;20534;-81
2022/05/16 04:36:01;;;;;;;2.08;0.80;;;;;;;14.04;45.72;98806.59;4807732;29;20068;-81
2022/05/16 04:38:27;;;;;;;1.27;0.80;;;;;;;14.35;45.31;98842.88;4790362;29;20571;-81
2022/05/16 04:43:41;;;;;;;1.00;0.70;;;;;;;14.37;45.07;98821.84;4805075;29;20138;-81
2022/05/16 04:46:07;;;;;;;1.48;1.30;;;;;;;14.44;44.71;98839.03;4800836;29;20511;-81
2022/05/16 04:48:34;;;;;;;2.95;0.93;;;;;;;14.47;44.68;98836.28;4796210;29;20042;-81
2022/05/16 04:51:00;;;;;;;1.77;1.05;;;;;;;14.52;44.75;98830.88;4809232;29;20435;-79
2022/05/16 04:53:26;;;;;;;0.85;0.70;;;;;;;14.81;44.08;98827.06;4799460;29;20069;-82
2022/05/16 04:55:53;;;;;;;1.83;0.70;;;;;;;14.99;43.99;98825.47;4796487;29;20045;-78
2022/05/16 04:58:21;;;;;;;2.10;0.80;;;;;;;14.90;43.55;98802.25;4817345;29;20039;-78
2022/05/16 05:00:48;;;;;;;1.55;0.70;;;;;;;15.06;43.54;98823.41;4812571;29;20057;-84
2022/05/16 05:03:14;;;;;;;2.10;0.80;;;;;;;15.07;43.12;98825.13;4802502;29;20042;-79
2022/05/16 05:05:39;;;;;;;2.35;0.90;;;;;;;15.18;42.59;98808.94;4789406;29;20065;-83
2022/05/16 05:08:06;;;;;;;1.98;0.80;;;;;;;15.47;42.50;98820.75;4802595;29;20066;-79
2022/05/16 05:16:10;;;;;;;1.75;0.70;;;;;;;16.10;40.96;98821.44;4799206;29;20043;-81
2022/05/16 05:18:38;;;;;;;1.05;0.90;;;;;;;16.10;40.51;98801.31;4804077;29;20042;-84
2022/05/16 05:21:04;;;;;;;1.85;0.70;;;;;;;16.03;40.23;98827.91;4816053;29;20503;-82
2022/05/16 05:23:32;;;;;;;2.22;0.85;;;;;;;15.73;40.52;98821.34;4789830;29;20051;-80
2022/05/16 05:25:58;;;;;;;2.45;1.35;;;;;;;15.96;40.29;98828.22;4801612;29;20049;-83
2022/05/16 05:28:24;;;;;;;2.65;1.00;;;;;;;16.32;39.47;98807.31;4803239;29;20042;-78
2022/05/16 05:30:50;;;;;;;4.00;1.23;;;;;;;16.90;39.00;98819.31;4801432;29;20046;-81
2022/05/16 05:33:16;;;;;;;1.35;0.80;;;;;;;17.45;39.13;98818.28;4792304;29;20054;-80
2022/05/16 05:35:42;;;;;;;1.13;0.77;;;;;;;18.06;37.98;98783.50;4807382;29;20468;-82
2022/05/16 05:38:09;;;;;;;4.10;1.25;;;;;;;19.80;36.76;98752.97;4809967;29;20085;-79
2022/05/16 05:40:37;;;;;;;0.68;0.52;;;;;;;22.61;33.26;98805.31;4810305;29;20153;-82
2022/05/16 05:43:07;;;;;;;1.30;0.80;;;;;;;24.52;31.08;98771.88;4807743;29;20091;-79
2022/05/16 05:45:35;;;;;;;3.63;0.80;;;;;;;25.97;29.12;98779.06;4805828;29;20062;-79
2022/05/16 05:48:01;;;;;;;2.25;0.70;;;;;;;27.66;27.66;98788.47;4801331;29;20042;-80
2022/05/16 05:50:28;;;;;;;1.83;0.70;;;;;;;28.23;25.63;98766.03;4776487;29;20100;-83
2022/05/16 05:52:54;;;;;;;5.38;0.80;;;;;;;28.36;24.74;98772.81;4804850;29;20031;-83
2022/05/16 05:55:20;;;;;;;6.10;0.90;;;;;;;28.13;24.66;98789.34;4801714;29;20576;-81
2022/05/16 05:57:47;;;;;;;1.90;0.70;;;;;;;29.59;23.81;98777.38;4799765;29;20054;-81
2022/05/16 06:00:14;;;;;;;3.17;0.68;;;;;;;30.60;21.43;98762.19;4815644;29;20072;-82
2022/05/16 06:02:42;;;;;;;1.63;0.75;;;;;;;31.79;21.39;98776.88;4803857;29;20051;-80
2022/05/16 06:05:17;;;;;;;3.85;0.70;;;;;;;32.62;20.38;98752.16;4801522;29;20051;-80
2022/05/16 06:07:43;;;;;;;3.40;0.70;;;;;;;30.45;19.68;98771.91;4801077;29;20054;-83
2022/05/16 06:10:10;;;;;;;5.85;0.90;;;;;;;27.81;21.66;98790.63;4804577;29;20043;-80
2022/05/16 06:12:39;;;;;;;1.95;0.60;;;;;;;25.53;22.80;98782.84;4802349;29;20138;-85
2022/05/16 06:15:07;;;;;;;3.00;0.60;;;;;;;23.93;24.04;98787.25;4802872;29;20145;-78
2022/05/16 06:17:35;;;;;;;1.88;0.80;;;;;;;22.97;24.72;98792.03;4799824;29;20034;-79
2022/05/16 06:20:03;;;;;;;1.27;0.88;;;;;;;22.55;25.63;98793.38;4791003;29;20054;-82
2022/05/16 06:22:34;;;;;;;1.90;0.70;;;;;;;21.97;26.02;98809.88;4801311;29;20523;-80
2022/05/16 06:25:34;;;;;;;1.75;0.80;;;;;;;21.55;26.29;98819.06;4808040;29;20080;-82
2022/05/16 06:28:13;;;;;;;6.68;1.08;;;;;;;20.90;27.26;98822.53;4799284;29;20091;-81
2022/05/16 06:30:43;;;;;;;2.15;0.70;;;;;;;19.94;28.04;98801.47;4804105;29;20058;-78
2022/05/16 06:33:10;;;;;;;1.30;0.70;;;;;;;19.49;28.33;98826.16;4820596;29;20140;-80
2022/05/16 06:35:37;;;;;;;2.35;0.80;;;;;;;18.60;29.73;98801.50;4819596;29;20066;-81
2022/05/16 06:38:11;;;;;;;1.60;0.73;;;;;;;18.41;31.19;98837.75;4825997;29;20058;-80
2022/05/16 06:40:39;;;;;;;1.63;0.80;;;;;;;17.99;31.32;98817.19;4803257;29;20045;-80
2022/05/16 06:43:05;;;;;;;1.63;0.70;;;;;;;17.78;32.18;98837.59;4819755;29;20895;-82
2022/05/16 06:45:32;;;;;;;2.63;0.68;;;;;;;17.26;32.61;98791.25;4806660;29;20038;-80
2022/05/16 06:48:04;;;;;;;1.15;0.75;;;;;;;17.23;32.99;98801.94;4807827;29;20046;-81
2022/05/16 06:50:38;;;;;;;1.58;0.52;;;;;;;17.31;33.01;98829.53;4811941;29;20144;-79
2022/05/16 06:53:31;;;;;;;1.98;0.50;;;;;;;17.31;33.51;98824.25;4810032;29;20585;-81
2022/05/16 06:55:57;;;;;;;1.50;0.95;;;;;;;17.35;33.67;98829.38;4806620;29;20038;-85
2022/05/16 06:58:24;;;;;;;3.40;1.70;;;;;;;17.36;33.18;98831.06;4802980;29;20050;-80
2022/05/16 07:00:50;;;;;;;2.40;0.85;;;;;;;17.49;33.03;98834.75;4805779;29;20142;-82
2022/05/16 07:03:17;;;;;;;3.13;1.10;;;;;;;17.59;33.06;98820.19;4791628;29;20133;-78
2022/05/16 07:05:43;;;;;;;1.00;0.60;;;;;;;17.83;32.51;98821.56;4820521;29;20137;-81
2022/05/16 07:08:09;;;;;;;0.68;0.60;;;;;;;17.87;32.13;98810.81;4801160;29;20039;-80
2022/05/16 07:10:36;;;;;;;7.50;0.68;;;;;;;18.04;31.89;98820.41;4776261;29;20359;-81
2022/05/16 07:13:02;;;;;;;1.42;0.63;;;;;;;18.14;32.06;98827.81;4792568;29;20042;-81
2022/05/16 07:15:28;;;;;;;2.08;0.77;;;;;;;18.22;31.93;98825.56;4819765;29;20051;-82
2022/05/16 07:17:54;;;;;;;3.58;0.77;;;;;;;18.20;31.66;98820.41;4818712;29;20045;-82
2022/05/16 07:20:23;;;;;;;2.75;0.50;;;;;;;18.28;31.69;98829.69;4800259;29;20496;-84
2022/05/16 07:22:49;;;;;;;6.28;0.70;;;;;;;18.56;30.88;98814.91;4802848;29;20125;-81
2022/05/16 07:25:25;;;;;;;3.50;0.60;;;;;;;18.64;30.49;98821.47;4806280;29;20070;-83
2022/05/16 07:28:00;;;;;;;1.63;0.60;;;;;;;18.35;30.78;98809.94;4801206;29;20411;-83
2022/05/16 07:30:35;;;;;;;2.78;0.70;;;;;;;18.35;30.53;98791.50;4786112;29;20134;-81
2022/05/16 07:33:02;;;;;;;3.75;0.70;;;;;;;18.72;30.37;98797.31;4801720;29;20066;-83
2022/05/16 07:35:32;;;;;;;3.15;0.73;;;;;;;19.12;29.94;98794.09;4802894;29;20046;-80
2022/05/16 07:37:59;;;;;;;3.45;0.60;;;;;;;20.25;29.61;98815.31;4801978;29;20067;-84
2022/05/16 07:40:29;;;;;;;3.90;0.70;;;;;;;21.43;28.30;98783.72;4801537;29;20050;-79
2022/05/16 07:43:01;;;;;;;1.00;0.50;;;;;;;21.27;27.13;98684.28;4825655;29;20439;-78
2022/05/16 07:45:31;;;;;;;1.45;0.70;;;;;;;21.24;27.16;98785.00;4805309;29;20043;-80
2022/05/16 07:48:03;;;;;;;5.13;0.70;;;;;;;20.93;27.27;98795.03;4822535;29;20054;-82
2022/05/16 07:50:36;;;;;;;3.50;0.63;;;;;;;20.43;27.16;98734.03;4807854;29;20058;-81
2022/05/16 07:53:13;;;;;;;3.92;0.60;;;;;;;21.04;27.43;98775.78;4782139;29;20137;-78
2022/05/16 07:56:03;;;;;;;1.25;0.70;;;;;;;23.50;26.25;98801.28;4801505;29;20070;-82
2022/05/16 07:58:41;;;;;;;3.00;1.52;;;;;;;24.90;24.42;98738.53;4787465;29;20064;-82
2022/05/16 08:01:07;;;;;;;1.33;0.70;;;;;;;25.24;23.87;98735.66;4786378;29;20448;-82
2022/05/16 08:03:33;;;;;;;5.60;1.10;;;;;;;26.71;22.84;98756.38;4804292;29;20046;-81
2022/05/16 08:05:59;;;;;;;2.30;0.80;;;;;;;26.84;21.83;98764.13;4819471;29;20368;-82
2022/05/16 08:11:14;;;;;;;5.60;2.22;;;;;;;24.76;22.95;98781.44;4832002;29;20050;-78
2022/05/16 08:13:41;;;;;;;1.95;0.82;;;;;;;23.65;23.43;98797.41;4811226;29;20555;-80
2022/05/16 08:16:08;;;;;;;5.28;1.50;;;;;;;22.73;24.17;98798.22;4805779;29;20368;-81
2022/05/16 08:18:34;;;;;;;3.90;0.68;;;;;;;22.17;24.30;98777.59;4819289;29;20046;-82
2022/05/16 08:21:03;;;;;;;3.50;1.80;;;;;;;21.76;24.96;98819.34;4797761;29;20598;-82
2022/05/16 08:23:56;;;;;;;6.75;3.35;;;;;;;21.00;25.51;98785.72;4800209;29;20100;-80
2022/05/16 08:26:28;;;;;;;2.95;1.98;;;;;;;20.49;25.82;98801.47;4802552;29;20139;-81
2022/05/16 08:28:54;;;;;;;3.40;1.17;;;;;;;19.81;26.04;98775.78;4772933;29;20076;-82
2022/05/16 08:31:28;;;;;;;23.88;17.25;;;;;;;19.50;26.45;98767.19;4787566;29;20093;-81
2022/05/16 08:33:57;;;;;;;6.50;3.08;;;;;;;19.48;26.92;98789.31;4800247;29;20501;-80
2022/05/16 08:42:02;;;;;;;8.50;3.05;;;;;;;18.61;27.78;98804.97;4799386;29;20173;-81
2022/05/16 08:44:35;;;;;;;6.03;0.90;;;;;;;18.16;27.99;98789.09;4765134;29;20115;-81
2022/05/16 08:47:12;;;;;;;1.88;1.02;;;;;;;17.85;28.55;98796.88;4802125;29;20051;-83
2022/05/16 08:49:45;;;;;;;4.97;3.17;;;;;;;17.64;28.73;98801.50;4785941;29;20102;-80
2022/05/16 08:52:25;;;;;;;6.50;4.05;;;;;;;17.34;29.53;98798.75;4783106;29;20042;-80
2022/05/16 08:55:01;;;;;;;4.20;1.88;;;;;;;17.37;29.31;98822.25;4799028;29;20058;-82
2022/05/16 08:57:34;;;;;;;15.18;9.77;;;;;;;17.37;29.80;98807.31;4813371;29;20062;-81
2022/05/16 09:00:12;;;;;;;8.10;5.32;;;;;;;17.49;29.44;98818.13;4813063;29;20145;-77
2022/05/16 09:02:42;;;;;;;4.40;2.40;;;;;;;17.39;29.72;98794.09;4818527;29;20077;-78
2022/05/16 09:05:24;;;;;;;2.00;0.77;;;;;;;17.48;29.44;98804.09;4826986;29;20519;-80
2022/05/16 09:07:53;;;;;;;10.48;5.05;;;;;;;17.36;29.60;98800.34;4833128;29;20527;-78
2022/05/16 09:10:25;;;;;;;6.60;2.83;;;;;;;17.38;29.89;98819.53;4820063;29;20057;-80
2022/05/16 09:13:26;;;;;;;2.03;0.90;;;;;;;16.82;29.99;98801.34;4806468;29;20046;-79
2022/05/16 09:16:17;;;;;;;3.38;0.60;;;;;;;16.33;30.64;98869.38;4815228;29;20084;-78
2022/05/16 09:19:19;;;;;;;4.77;0.87;;;;;;;15.40;31.75;98855.19;4833585;29;20054;-78
2022/05/16 09:22:15;;;;;;;1.25;0.57;;;;;;;14.37;34.15;98832.31;4804317;29;20088;-78
2022/05/16 09:24:50;;;;;;;0.95;0.68;;;;;;;14.33;35.45;98862.16;4804268;29;20094;-79
2022/05/16 09:30:22;;;;;;;1.92;0.85;;;;;;;14.25;37.08;98860.69;4828458;29;20103;-78
2022/05/16 09:32:53;;;;;;;1.52;1.02;;;;;;;14.37;37.38;98851.50;4797239;29;20046;-81
2022/05/16 09:35:39;;;;;;;1.48;0.95;;;;;;;14.76;37.79;98853.47;4827551;29;20046;-80
2022/05/16 09:38:14;;;;;;;1.60;1.00;;;;;;;15.04;37.82;98849.69;4825311;29;20050;-80
2022/05/16 09:40:54;;;;;;;2.30;0.80;;;;;;;15.33;37.88;98818.78;4803188;29;20061;-81
2022/05/16 09:43:23;;;;;;;3.58;1.08;;;;;;;16.63;37.22;98846.03;4811796;29;20054;-80
2022/05/16 09:45:53;;;;;;;1.10;0.88;;;;;;;17.93;36.23;98835.94;4816057;29;20104;-78
2022/05/16 09:48:25;;;;;;;1.90;1.00;;;;;;;20.37;34.97;98825.09;4834520;29;20038;-77
2022/05/16 09:51:07;;;;;;;3.00;1.10;;;;;;;22.50;31.42;98806.09;4811043;29;20057;-79
2022/05/16 09:53:36;;;;;;;;;;;;;;;24.77;29.32;98801.75;4820641;29;20049;-80
2022/05/16 09:56:13;;;;;;;3.25;1.40;;;;;;;26.33;27.41;98779.44;4787920;29;19921;-82
2022/05/16 09:58:54;;;;;;;2.45;1.08;;;;;;;26.70;25.85;98767.19;4807511;29;20135;-81
2022/05/16 10:01:44;;;;;;;3.28;1.27;;;;;;;27.21;25.43;98786.50;4789523;29;21866;-80
2022/05/16 10:04:24;;;;;;;3.42;1.08;;;;;;;26.24;25.45;98746.44;4820037;29;20881;-81
2022/05/16 10:06:57;;;;;;;2.35;1.38;;;;;;;25.92;24.94;98786.63;4817464;29;20530;-79
2022/05/16 10:09:32;;;;;;;2.05;1.00;;;;;;;25.33;24.50;98779.25;4777172;29;20590;-81
2022/05/16 10:12:03;;;;;;;3.05;0.85;;;;;;;24.23;24.90;98763.66;4794022;29;20042;-82
2022/05/16 10:14:30;;;;;;;4.00;1.05;;;;;;;23.20;25.12;98790.25;4804040;29;20050;-82
2022/05/16 10:16:56;;;;;;;5.75;0.90;;;;;;;21.99;25.55;98771.84;4795715;29;20042;-80
2022/05/16 10:19:28;;;;;;;5.15;1.33;;;;;;;21.27;25.87;98802.44;4793484;29;20123;-78
2022/05/16 10:22:01;;;;;;;2.47;1.30;;;;;;;20.43;26.47;98808.84;4821355;29;20566;-80
2022/05/16 10:24:31;;;;;;;4.10;1.05;;;;;;;19.56;27.32;98864.41;4820588;29;20065;-80
2022/05/16 10:27:01;;;;;;;1.63;1.08;;;;;;;18.38;28.94;98872.97;4821834;29;20062;-80
2022/05/16 10:29:40;;;;;;;2.97;0.90;;;;;;;17.66;31.32;98896.13;4802700;29;20236;-81
2022/05/16 10:35:21;;;;;;;3.40;1.25;;;;;;;16.32;34.87;98891.31;4808077;29;20062;-81
2022/05/16 10:37:55;;;;;;;1.58;0.82;;;;;;;15.94;36.24;98866.78;4810064;29;20606;-84
2022/05/16 10:40:45;;;;;;;1.02;0.60;;;;;;;15.86;37.05;98899.53;4803396;29;20118;-80
2022/05/16 10:43:22;;;;;;;6.82;4.30;;;;;;;15.67;37.54;98879.31;4788495;29;20062;-80
2022/05/16 10:45:57;;;;;;;13.82;8.88;;;;;;;15.65;37.79;98876.78;4790046;29;20062;-82
2022/05/16 10:48:47;;;;;;;30.45;18.25;;;;;;;15.43;38.42;98855.03;4804943;29;20050;-82
2022/05/16 10:51:31;;;;;;;1.80;0.65;;;;;;;15.61;38.64;98859.47;4821835;29;20413;-82
2022/05/16 10:54:13;;;;;;;1.90;0.60;;;;;;;15.70;38.29;98810.16;4824229;29;20567;-81
2022/05/16 10:57:34;;;;;;;2.22;1.08;;;;;;;16.14;37.58;98823.00;4792929;29;20042;-80
2022/05/16 11:00:06;;;;;;;4.05;1.60;;;;;;;16.75;37.01;98844.59;4775464;29;20885;-80
2022/05/16 11:03:13;;;;;;;5.22;3.30;;;;;;;17.37;36.65;98849.38;4822357;29;20452;-81
2022/05/16 11:06:09;;;;;;;8.05;5.47;;;;;;;17.62;36.13;98816.53;4809948;29;20050;-81
2022/05/16 11:08:46;;;;;;;4.18;2.70;;;;;;;17.74;35.57;98842.19;4811497;29;20102;-83
2022/05/16 11:11:21;;;;;;;4.10;2.30;;;;;;;17.88;34.52;98817.75;4824093;29;20073;-83
2022/05/16 11:13:55;;;;;;;2.08;1.00;;;;;;;17.40;34.25;98714.28;4792023;29;20477;-80
2022/05/16 11:16:33;;;;;;;2.75;2.05;;;;;;;17.81;33.79;98783.97;4815554;29;20065;-81
2022/05/16 11:19:38;;;;;;;2.88;1.48;;;;;;;17.96;33.48;98835.75;4818908;29;20064;-79
2022/05/16 11:22:13;;;;;;;3.28;1.55;;;;;;;17.16;33.58;98739.16;4817838;29;20046;-80
2022/05/16 11:25:10;;;;;;;2.13;1.20;;;;;;;17.80;33.23;98835.75;4802248;29;20157;-78
2022/05/16 11:31:02;;;;;;;1.20;0.80;;;;;;;17.21;33.39;98840.59;4755021;29;20057;-80
2022/05/16 11:33:56;;;;;;;3.75;2.03;;;;;;;16.92;34.07;98850.78;4826755;29;20140;-79
2022/05/16 11:36:51;;;;;;;4.80;1.05;;;;;;;16.81;34.12;98836.41;4797917;29;20053;-80
2022/05/16 11:39:37;;;;;;;4.28;2.28;;;;;;;16.73;34.10;98832.47;4795887;29;20415;-79
2022/05/16 11:42:18;;;;;;;4.50;2.75;;;;;;;16.69;34.04;98830.00;4824778;29;20510;-80
2022/05/16 11:45:22;;;;;;;4.95;3.80;;;;;;;16.65;33.66;98781.16;4807955;29;20052;-77
2022/05/16 11:48:23;;;;;;;2.05;0.80;;;;;;;17.08;32.82;98828.09;4796464;29;20066;-78
2022/05/16 11:51:04;;;;;;;17.08;12.25;;;;;;;17.20;32.92;98823.13;4823845;29;20502;-79
2022/05/16 11:53:48;;;;;;;39.28;26.38;;;;;;;17.13;32.87;98789.25;4798723;29;20510;-79
2022/05/16 12:02:17;;;;;;;10.57;8.07;;;;;;;17.49;32.66;98818.13;4822874;29;20082;-80
2022/05/16 12:04:52;;;;;;;8.95;4.63;;;;;;;17.37;32.12;98775.75;4793440;29;20050;-80
2022/05/16 12:07:29;;;;;;;17.25;10.23;;;;;;;17.81;31.80;98811.13;4826759;29;20174;-79
2022/05/16 12:09:58;;;;;;;3.10;1.63;;;;;;;17.82;31.88;98797.03;4809612;29;20109;-79
2022/05/16 12:12:31;;;;;;;2.00;1.52;;;;;;;17.81;31.91;98769.03;4829501;29;20069;-78
2022/05/16 12:15:24;;;;;;;9.18;5.80;;;;;;;18.10;31.89;98802.59;4832107;29;20046;-79
2022/05/16 12:18:25;;;;;;;3.22;2.45;;;;;;;18.05;31.77;98776.53;4827760;29;20149;-79
2022/05/16 12:20:58;;;;;;;2.83;2.10;;;;;;;17.94;31.84;98799.91;4798019;29;20042;-79
2022/05/16 12:23:54;;;;;;;2.63;2.28;;;;;;;17.80;31.64;98792.78;4822728;29;20050;-82
2022/05/16 12:26:26;;;;;;;2.88;1.63;;;;;;;17.75;31.92;98800.94;4808247;29;20122;-81
2022/05/16 12:29:08;;;;;;;3.10;2.47;;;;;;;17.69;31.49;98801.25;4810349;29;20098;-80
2022/05/16 12:31:49;;;;;;;8.55;5.63;;;;;;;17.53;31.50;98804.72;4831611;29;20053;-79
2022/05/16 12:34:31;;;;;;;5.47;3.05;;;;;;;17.31;32.38;98805.03;4829814;29;20118;-79
2022/05/16 12:36:59;;;;;;;5.72;3.95;;;;;;;17.22;32.53;98808.97;4828763;29;20038;-79